sensor_id;sensor_type;location;lat;lon;timestamp;pressure;altitude;pressure_sealevel;temperature;humidity
8294;BME280;4185;41.506;24.938;2023-04-21T00:01:37;93121.09;;;7.82;99.85
8294;BME280;4185;41.506;24.938;2023-04-21T00:04:04;93113.25;;;7.84;100.00
8294;BME280;4185;41.506;24.938;2023-04-21T00:06:31;93116.78;;;7.90;99.70
8294;BME280;4185;41.506;24.938;2023-04-21T00:08:58;93111.25;;;7.79;99.36
8294;BME280;4185;41.506;24.938;2023-04-21T00:11:25;93118.50;;;7.67;100.00
8294;BME280;4185;41.506;24.938;2023-04-21T00:13:53;93113.28;;;7.64;100.00
8294;BME280;4185;41.506;24.938;2023-04-21T00:16:20;93110.13;;;7.65;100.00
8294;BME280;4185;41.506;24.938;2023-04-21T00:18:47;93112.88;;;7.71;100.00
8294;BME280;4185;41.506;24.938;2023-04-21T00:21:14;93117.88;;;7.78;100.00
8294;BME280;4185;41.506;24.938;2023-04-21T00:23:42;93116.59;;;7.73;100.00
8294;BME280;4185;41.506;24.938;2023-04-21T00:26:09;93111.94;;;7.74;100.00
8294;BME280;4185;41.506;24.938;2023-04-21T00:28:35;93109.97;;;7.74;100.00
8294;BME280;4185;41.506;24.938;2023-04-21T00:31:04;93114.34;;;7.72;100.00
8294;BME280;4185;41.506;24.938;2023-04-21T00:33:30;93121.69;;;7.66;100.00
8294;BME280;4185;41.506;24.938;2023-04-21T00:35:57;93109.31;;;7.59;100.00
8294;BME280;4185;41.506;24.938;2023-04-21T00:38:24;93103.59;;;7.52;98.65
8294;BME280;4185;41.506;24.938;2023-04-21T00:40:51;93105.97;;;7.44;98.28
8294;BME280;4185;41.506;24.938;2023-04-21T00:43:18;93111.50;;;7.35;100.00
8294;BME280;4185;41.506;24.938;2023-04-21T00:45:45;93104.56;;;7.28;100.00
8294;BME280;4185;41.506;24.938;2023-04-21T00:48:13;93104.66;;;7.39;100.00
8294;BME280;4185;41.506;24.938;2023-04-21T00:50:40;93098.84;;;7.47;100.00
8294;BME280;4185;41.506;24.938;2023-04-21T00:53:08;93101.56;;;7.47;100.00
8294;BME280;4185;41.506;24.938;2023-04-21T00:55:35;93101.84;;;7.49;100.00
8294;BME280;4185;41.506;24.938;2023-04-21T00:58:02;93104.13;;;7.56;100.00
8294;BME280;4185;41.506;24.938;2023-04-21T01:00:30;93100.13;;;7.51;100.00
8294;BME280;4185;41.506;24.938;2023-04-21T01:02:58;93097.38;;;7.46;100.00
8294;BME280;4185;41.506;24.938;2023-04-21T01:05:27;93100.34;;;7.47;100.00
8294;BME280;4185;41.506;24.938;2023-04-21T01:07:54;93102.59;;;7.49;100.00
8294;BME280;4185;41.506;24.938;2023-04-21T01:10:21;93102.34;;;7.53;100.00
8294;BME280;4185;41.506;24.938;2023-04-21T01:12:48;93107.50;;;7.51;100.00
8294;BME280;4185;41.506;24.938;2023-04-21T01:15:16;93097.25;;;7.34;100.00
8294;BME280;4185;41.506;24.938;2023-04-21T01:17:43;93103.59;;;7.31;100.00
8294;BME280;4185;41.506;24.938;2023-04-21T01:20:12;93108.06;;;7.34;100.00
8294;BME280;4185;41.506;24.938;2023-04-21T01:22:41;93103.81;;;7.28;100.00
8294;BME280;4185;41.506;24.938;2023-04-21T01:25:09;93108.22;;;7.25;100.00
8294;BME280;4185;41.506;24.938;2023-04-21T01:27:36;93107.88;;;7.18;100.00
8294;BME280;4185;41.506;24.938;2023-04-21T01:30:03;93108.88;;;7.20;100.00
8294;BME280;4185;41.506;24.938;2023-04-21T01:32:30;93110.75;;;7.14;100.00
8294;BME280;4185;41.506;24.938;2023-04-21T01:34:58;93114.69;;;7.13;100.00
8294;BME280;4185;41.506;24.938;2023-04-21T01:37:27;93103.34;;;7.09;100.00
8294;BME280;4185;41.506;24.938;2023-04-21T01:39:57;93105.03;;;7.07;100.00
8294;BME280;4185;41.506;24.938;2023-04-21T01:42:26;93112.09;;;7.04;100.00
8294;BME280;4185;41.506;24.938;2023-04-21T01:44:53;93109.97;;;7.08;100.00
8294;BME280;4185;41.506;24.938;2023-04-21T01:47:21;93113.78;;;7.02;100.00
8294;BME280;4185;41.506;24.938;2023-04-21T01:49:48;93113.84;;;7.07;100.00
8294;BME280;4185;41.506;24.938;2023-04-21T01:52:15;93109.13;;;7.02;100.00
8294;BME280;4185;41.506;24.938;2023-04-21T01:54:42;93107.38;;;6.99;100.00
8294;BME280;4185;41.506;24.938;2023-04-21T01:57:10;93102.09;;;6.90;100.00
8294;BME280;4185;41.506;24.938;2023-04-21T01:59:37;93104.31;;;6.92;100.00
8294;BME280;4185;41.506;24.938;2023-04-21T02:02:04;93095.56;;;6.97;100.00
8294;BME280;4185;41.506;24.938;2023-04-21T02:04:30;93101.91;;;6.94;100.00
8294;BME280;4185;41.506;24.938;2023-04-21T02:06:57;93107.84;;;6.98;100.00
8294;BME280;4185;41.506;24.938;2023-04-21T02:09:24;93108.72;;;6.89;100.00
8294;BME280;4185;41.506;24.938;2023-04-21T02:11:51;93107.78;;;6.92;100.00
8294;BME280;4185;41.506;24.938;2023-04-21T02:14:19;93107.09;;;6.97;100.00
8294;BME280;4185;41.506;24.938;2023-04-21T02:16:46;93113.25;;;6.98;100.00
8294;BME280;4185;41.506;24.938;2023-04-21T02:19:13;93114.69;;;6.93;100.00
8294;BME280;4185;41.506;24.938;2023-04-21T02:21:40;93114.00;;;6.98;100.00
8294;BME280;4185;41.506;24.938;2023-04-21T02:24:06;93109.41;;;7.04;100.00
8294;BME280;4185;41.506;24.938;2023-04-21T02:26:33;93105.25;;;7.03;100.00
8294;BME280;4185;41.506;24.938;2023-04-21T02:29:00;93097.25;;;6.94;100.00
8294;BME280;4185;41.506;24.938;2023-04-21T02:31:28;93100.06;;;6.85;100.00
8294;BME280;4185;41.506;24.938;2023-04-21T02:33:55;93098.19;;;6.71;100.00
8294;BME280;4185;41.506;24.938;2023-04-21T02:36:23;93096.81;;;6.61;100.00
8294;BME280;4185;41.506;24.938;2023-04-21T02:38:50;93098.41;;;6.53;100.00
8294;BME280;4185;41.506;24.938;2023-04-21T02:41:17;93098.13;;;6.51;100.00
8294;BME280;4185;41.506;24.938;2023-04-21T02:43:44;93090.69;;;6.46;100.00
8294;BME280;4185;41.506;24.938;2023-04-21T02:46:10;93098.25;;;6.42;100.00
8294;BME280;4185;41.506;24.938;2023-04-21T02:48:38;93091.66;;;6.29;100.00
8294;BME280;4185;41.506;24.938;2023-04-21T02:51:10;93081.72;;;6.20;100.00
8294;BME280;4185;41.506;24.938;2023-04-21T02:53:37;93089.63;;;6.24;100.00
8294;BME280;4185;41.506;24.938;2023-04-21T02:56:05;93080.69;;;6.17;100.00
8294;BME280;4185;41.506;24.938;2023-04-21T02:58:33;93093.25;;;6.06;100.00
8294;BME280;4185;41.506;24.938;2023-04-21T03:01:00;93090.75;;;6.17;100.00
8294;BME280;4185;41.506;24.938;2023-04-21T03:03:28;93095.69;;;6.18;100.00
8294;BME280;4185;41.506;24.938;2023-04-21T03:06:00;93095.69;;;6.18;100.00
8294;BME280;4185;41.506;24.938;2023-04-21T03:08:27;93096.16;;;6.17;100.00
8294;BME280;4185;41.506;24.938;2023-04-21T03:10:54;93095.97;;;6.21;100.00
8294;BME280;4185;41.506;24.938;2023-04-21T03:13:21;93103.59;;;6.22;100.00
8294;BME280;4185;41.506;24.938;2023-04-21T03:15:48;93102.00;;;6.30;100.00
8294;BME280;4185;41.506;24.938;2023-04-21T03:18:15;93102.00;;;6.30;100.00
8294;BME280;4185;41.506;24.938;2023-04-21T03:20:42;93103.78;;;6.18;100.00
8294;BME280;4185;41.506;24.938;2023-04-21T03:23:10;93101.53;;;6.17;100.00
8294;BME280;4185;41.506;24.938;2023-04-21T03:25:37;93109.34;;;6.15;100.00
8294;BME280;4185;41.506;24.938;2023-04-21T03:28:04;93099.50;;;6.12;100.00
8294;BME280;4185;41.506;24.938;2023-04-21T03:30:31;93105.09;;;6.08;100.00
8294;BME280;4185;41.506;24.938;2023-04-21T03:32:58;93100.97;;;6.13;100.00
8294;BME280;4185;41.506;24.938;2023-04-21T03:35:25;93096.91;;;6.03;100.00
8294;BME280;4185;41.506;24.938;2023-04-21T03:37:52;93095.69;;;5.89;100.00
8294;BME280;4185;41.506;24.938;2023-04-21T03:40:20;93102.56;;;5.90;100.00
8294;BME280;4185;41.506;24.938;2023-04-21T03:42:47;93107.28;;;5.95;100.00
8294;BME280;4185;41.506;24.938;2023-04-21T03:45:14;93109.16;;;6.04;100.00
8294;BME280;4185;41.506;24.938;2023-04-21T03:47:43;93104.53;;;6.04;100.00
8294;BME280;4185;41.506;24.938;2023-04-21T03:50:10;93111.28;;;6.14;100.00
8294;BME280;4185;41.506;24.938;2023-04-21T03:52:37;93111.09;;;6.18;100.00
8294;BME280;4185;41.506;24.938;2023-04-21T03:55:07;93120.13;;;6.15;100.00
8294;BME280;4185;41.506;24.938;2023-04-21T03:57:38;93121.63;;;6.16;100.00
8294;BME280;4185;41.506;24.938;2023-04-21T04:00:06;93119.56;;;6.11;100.00
8294;BME280;4185;41.506;24.938;2023-04-21T04:02:34;93112.69;;;5.95;100.00
8294;BME280;4185;41.506;24.938;2023-04-21T04:05:02;93116.13;;;5.96;100.00
8294;BME280;4185;41.506;24.938;2023-04-21T04:07:30;93113.16;;;5.94;100.00
8294;BME280;4185;41.506;24.938;2023-04-21T04:09:57;93122.38;;;6.02;100.00
8294;BME280;4185;41.506;24.938;2023-04-21T04:12:24;93122.91;;;6.06;100.00
8294;BME280;4185;41.506;24.938;2023-04-21T04:14:52;93120.59;;;5.99;100.00
8294;BME280;4185;41.506;24.938;2023-04-21T04:17:18;93122.56;;;5.98;100.00
8294;BME280;4185;41.506;24.938;2023-04-21T04:19:45;93122.47;;;5.93;100.00
8294;BME280;4185;41.506;24.938;2023-04-21T04:22:12;93126.13;;;5.81;100.00
8294;BME280;4185;41.506;24.938;2023-04-21T04:24:39;93132.75;;;5.80;100.00
8294;BME280;4185;41.506;24.938;2023-04-21T04:27:05;93137.38;;;5.79;100.00
8294;BME280;4185;41.506;24.938;2023-04-21T04:29:32;93135.16;;;5.78;100.00
8294;BME280;4185;41.506;24.938;2023-04-21T04:32:00;93141.47;;;5.75;100.00
8294;BME280;4185;41.506;24.938;2023-04-21T04:34:28;93136.81;;;5.75;100.00
8294;BME280;4185;41.506;24.938;2023-04-21T04:36:57;93137.09;;;5.77;100.00
8294;BME280;4185;41.506;24.938;2023-04-21T04:39:23;93140.94;;;5.85;100.00
8294;BME280;4185;41.506;24.938;2023-04-21T04:41:51;93142.63;;;5.83;100.00
8294;BME280;4185;41.506;24.938;2023-04-21T04:44:18;93140.09;;;5.94;100.00
8294;BME280;4185;41.506;24.938;2023-04-21T04:46:45;93146.53;;;5.96;99.55
8294;BME280;4185;41.506;24.938;2023-04-21T04:49:15;93138.09;;;6.03;98.87
8294;BME280;4185;41.506;24.938;2023-04-21T04:51:42;93145.44;;;6.03;99.54
8294;BME280;4185;41.506;24.938;2023-04-21T04:54:08;93137.91;;;6.07;100.00
8294;BME280;4185;41.506;24.938;2023-04-21T04:56:35;93140.59;;;6.07;100.00
8294;BME280;4185;41.506;24.938;2023-04-21T04:59:02;93129.41;;;6.14;100.00
8294;BME280;4185;41.506;24.938;2023-04-21T05:01:29;93142.00;;;6.17;99.51
8294;BME280;4185;41.506;24.938;2023-04-21T05:03:56;93132.03;;;6.23;100.00
8294;BME280;4185;41.506;24.938;2023-04-21T05:06:24;93125.69;;;6.26;100.00
8294;BME280;4185;41.506;24.938;2023-04-21T05:08:52;93132.78;;;6.24;100.00
8294;BME280;4185;41.506;24.938;2023-04-21T05:11:20;93140.03;;;6.32;100.00
8294;BME280;4185;41.506;24.938;2023-04-21T05:13:47;93129.13;;;6.41;99.86
8294;BME280;4185;41.506;24.938;2023-04-21T05:16:14;93132.47;;;6.36;98.82
8294;BME280;4185;41.506;24.938;2023-04-21T05:18:40;93132.31;;;6.25;99.29
8294;BME280;4185;41.506;24.938;2023-04-21T05:21:07;93132.59;;;6.27;100.00
8294;BME280;4185;41.506;24.938;2023-04-21T05:23:35;93134.91;;;6.34;100.00
8294;BME280;4185;41.506;24.938;2023-04-21T05:26:02;93130.91;;;6.44;100.00
8294;BME280;4185;41.506;24.938;2023-04-21T05:28:29;93127.13;;;6.56;99.81
8294;BME280;4185;41.506;24.938;2023-04-21T05:30:56;93128.53;;;6.66;99.37
8294;BME280;4185;41.506;24.938;2023-04-21T05:33:22;93124.75;;;6.78;98.37
8294;BME280;4185;41.506;24.938;2023-04-21T05:35:51;93124.66;;;6.87;97.51
8294;BME280;4185;41.506;24.938;2023-04-21T05:38:17;93121.84;;;6.96;98.02
8294;BME280;4185;41.506;24.938;2023-04-21T05:40:51;93118.97;;;7.05;98.96
8294;BME280;4185;41.506;24.938;2023-04-21T05:43:18;93119.66;;;7.20;99.78
8294;BME280;4185;41.506;24.938;2023-04-21T05:45:45;93129.47;;;7.38;98.77
8294;BME280;4185;41.506;24.938;2023-04-21T05:48:12;93123.03;;;7.56;98.32
8294;BME280;4185;41.506;24.938;2023-04-21T05:50:39;93116.78;;;7.70;98.77
8294;BME280;4185;41.506;24.938;2023-04-21T05:53:06;93111.25;;;7.79;98.91
8294;BME280;4185;41.506;24.938;2023-04-21T05:55:33;93110.13;;;7.91;98.25
8294;BME280;4185;41.506;24.938;2023-04-21T05:58:01;93109.28;;;8.05;96.70
8294;BME280;4185;41.506;24.938;2023-04-21T06:00:28;93109.91;;;8.20;96.15
8294;BME280;4185;41.506;24.938;2023-04-21T06:02:55;93110.28;;;8.33;96.45
8294;BME280;4185;41.506;24.938;2023-04-21T06:05:22;93112.81;;;8.42;95.70
8294;BME280;4185;41.506;24.938;2023-04-21T06:07:49;93118.56;;;8.55;95.83
8294;BME280;4185;41.506;24.938;2023-04-21T06:10:16;93119.16;;;8.70;94.75
8294;BME280;4185;41.506;24.938;2023-04-21T06:12:43;93117.53;;;8.84;94.45
8294;BME280;4185;41.506;24.938;2023-04-21T06:15:12;93106.75;;;8.95;94.51
8294;BME280;4185;41.506;24.938;2023-04-21T06:17:38;93106.59;;;9.09;94.14
8294;BME280;4185;41.506;24.938;2023-04-21T06:20:07;93110.59;;;9.19;93.91
8294;BME280;4185;41.506;24.938;2023-04-21T06:22:34;93101.03;;;9.29;93.15
8294;BME280;4185;41.506;24.938;2023-04-21T06:25:01;93102.31;;;9.39;91.87
8294;BME280;4185;41.506;24.938;2023-04-21T06:27:27;93107.03;;;9.50;90.30
8294;BME280;4185;41.506;24.938;2023-04-21T06:29:54;93103.63;;;9.60;90.31
8294;BME280;4185;41.506;24.938;2023-04-21T06:32:22;93091.06;;;9.68;89.35
8294;BME280;4185;41.506;24.938;2023-04-21T06:34:49;93096.00;;;9.81;90.21
8294;BME280;4185;41.506;24.938;2023-04-21T06:37:16;93093.09;;;9.90;89.34
8294;BME280;4185;41.506;24.938;2023-04-21T06:39:43;93100.50;;;10.01;89.46
8294;BME280;4185;41.506;24.938;2023-04-21T06:42:10;93097.56;;;10.10;89.34
8294;BME280;4185;41.506;24.938;2023-04-21T06:44:37;93096.13;;;10.20;87.62
8294;BME280;4185;41.506;24.938;2023-04-21T06:47:04;93089.22;;;10.30;88.76
8294;BME280;4185;41.506;24.938;2023-04-21T06:49:32;93087.00;;;10.39;88.47
8294;BME280;4185;41.506;24.938;2023-04-21T06:51:59;93086.97;;;10.50;88.28
8294;BME280;4185;41.506;24.938;2023-04-21T06:54:26;93077.38;;;10.55;86.68
8294;BME280;4185;41.506;24.938;2023-04-21T06:56:53;93083.28;;;10.70;84.90
8294;BME280;4185;41.506;24.938;2023-04-21T06:59:20;93084.50;;;10.80;84.94
8294;BME280;4185;41.506;24.938;2023-04-21T07:01:47;93086.22;;;10.94;84.22
8294;BME280;4185;41.506;24.938;2023-04-21T07:04:16;93086.16;;;11.05;83.38
8294;BME280;4185;41.506;24.938;2023-04-21T07:06:44;93083.66;;;11.18;82.80
8294;BME280;4185;41.506;24.938;2023-04-21T07:09:11;93080.16;;;11.29;82.25
8294;BME280;4185;41.506;24.938;2023-04-21T07:11:38;93079.13;;;11.43;82.36
8294;BME280;4185;41.506;24.938;2023-04-21T07:14:06;93073.88;;;11.56;79.63
8294;BME280;4185;41.506;24.938;2023-04-21T07:16:33;93065.72;;;11.67;76.15
8294;BME280;4185;41.506;24.938;2023-04-21T07:19:00;93066.13;;;11.76;75.21
8294;BME280;4185;41.506;24.938;2023-04-21T07:21:26;93071.25;;;11.91;70.42
8294;BME280;4185;41.506;24.938;2023-04-21T07:23:56;93084.25;;;12.09;68.44
8294;BME280;4185;41.506;24.938;2023-04-21T07:26:23;93075.00;;;12.23;67.78
8294;BME280;4185;41.506;24.938;2023-04-21T07:28:50;93074.19;;;12.34;67.94
8294;BME280;4185;41.506;24.938;2023-04-21T07:31:17;93075.31;;;12.49;65.04
8294;BME280;4185;41.506;24.938;2023-04-21T07:33:44;93082.84;;;12.62;64.78
8294;BME280;4185;41.506;24.938;2023-04-21T07:36:10;93071.31;;;12.80;63.24
8294;BME280;4185;41.506;24.938;2023-04-21T07:38:37;93072.84;;;12.99;60.65
8294;BME280;4185;41.506;24.938;2023-04-21T07:41:09;93070.44;;;13.20;60.14
8294;BME280;4185;41.506;24.938;2023-04-21T07:43:36;93060.09;;;13.37;58.68
8294;BME280;4185;41.506;24.938;2023-04-21T07:46:03;93063.13;;;13.52;58.15
8294;BME280;4185;41.506;24.938;2023-04-21T07:48:30;93062.38;;;13.52;61.65
8294;BME280;4185;41.506;24.938;2023-04-21T07:50:56;93056.31;;;13.40;60.45
8294;BME280;4185;41.506;24.938;2023-04-21T07:53:25;93063.06;;;13.39;61.14
8294;BME280;4185;41.506;24.938;2023-04-21T07:55:52;93059.84;;;13.35;61.20
8294;BME280;4185;41.506;24.938;2023-04-21T07:58:20;93062.31;;;13.38;59.49
8294;BME280;4185;41.506;24.938;2023-04-21T08:00:47;93056.56;;;13.42;59.60
8294;BME280;4185;41.506;24.938;2023-04-21T08:03:14;93055.22;;;13.48;58.76
8294;BME280;4185;41.506;24.938;2023-04-21T08:05:41;93047.41;;;13.58;57.66
8294;BME280;4185;41.506;24.938;2023-04-21T08:08:08;93052.47;;;13.91;56.48
8294;BME280;4185;41.506;24.938;2023-04-21T08:10:35;93046.91;;;14.15;55.67
8294;BME280;4185;41.506;24.938;2023-04-21T08:13:02;93037.88;;;14.39;56.71
8294;BME280;4185;41.506;24.938;2023-04-21T08:15:32;93044.72;;;14.45;53.34
8294;BME280;4185;41.506;24.938;2023-04-21T08:17:58;93054.78;;;14.37;52.86
8294;BME280;4185;41.506;24.938;2023-04-21T08:20:25;93055.97;;;14.23;52.14
8294;BME280;4185;41.506;24.938;2023-04-21T08:22:52;93049.00;;;14.22;53.08
8294;BME280;4185;41.506;24.938;2023-04-21T08:25:19;93047.63;;;14.16;53.43
8294;BME280;4185;41.506;24.938;2023-04-21T08:27:46;93054.44;;;14.09;52.61
8294;BME280;4185;41.506;24.938;2023-04-21T08:30:13;93059.47;;;14.05;53.81
8294;BME280;4185;41.506;24.938;2023-04-21T08:32:42;93061.53;;;13.99;58.30
8294;BME280;4185;41.506;24.938;2023-04-21T08:35:09;93063.16;;;13.89;60.37
8294;BME280;4185;41.506;24.938;2023-04-21T08:37:36;93063.75;;;13.82;60.49
8294;BME280;4185;41.506;24.938;2023-04-21T08:40:03;93068.91;;;13.67;59.39
8294;BME280;4185;41.506;24.938;2023-04-21T08:42:31;93067.78;;;13.57;62.06
8294;BME280;4185;41.506;24.938;2023-04-21T08:44:58;93078.84;;;13.46;62.04
8294;BME280;4185;41.506;24.938;2023-04-21T08:47:26;93078.63;;;13.44;62.84
8294;BME280;4185;41.506;24.938;2023-04-21T08:49:55;93089.63;;;13.33;60.19
8294;BME280;4185;41.506;24.938;2023-04-21T08:52:23;93089.41;;;13.31;61.64
8294;BME280;4185;41.506;24.938;2023-04-21T08:54:50;93089.75;;;13.22;61.95
8294;BME280;4185;41.506;24.938;2023-04-21T08:57:17;93092.22;;;13.25;64.12
8294;BME280;4185;41.506;24.938;2023-04-21T08:59:44;93090.44;;;13.28;63.92
8294;BME280;4185;41.506;24.938;2023-04-21T09:02:12;93102.28;;;13.36;63.36
8294;BME280;4185;41.506;24.938;2023-04-21T09:04:41;93097.00;;;13.38;62.91
8294;BME280;4185;41.506;24.938;2023-04-21T09:07:10;93100.72;;;13.40;62.52
8294;BME280;4185;41.506;24.938;2023-04-21T09:09:51;93105.91;;;13.44;63.32
8294;BME280;4185;41.506;24.938;2023-04-21T09:12:18;93099.13;;;13.51;61.90
8294;BME280;4185;41.506;24.938;2023-04-21T09:14:45;93099.19;;;13.45;61.22
8294;BME280;4185;41.506;24.938;2023-04-21T09:17:14;93104.69;;;13.39;61.56
8294;BME280;4185;41.506;24.938;2023-04-21T09:19:42;93098.78;;;13.35;61.15
8294;BME280;4185;41.506;24.938;2023-04-21T09:22:14;93096.81;;;13.36;62.32
8294;BME280;4185;41.506;24.938;2023-04-21T09:24:44;93090.09;;;13.37;63.49
8294;BME280;4185;41.506;24.938;2023-04-21T09:27:14;93095.03;;;13.14;69.49
8294;BME280;4185;41.506;24.938;2023-04-21T09:29:44;93083.41;;;12.84;73.67
8294;BME280;4185;41.506;24.938;2023-04-21T09:32:16;93078.72;;;12.85;73.93
8294;BME280;4185;41.506;24.938;2023-04-21T09:34:43;93080.66;;;12.90;74.68
8294;BME280;4185;41.506;24.938;2023-04-21T09:37:11;93076.84;;;12.98;74.07
8294;BME280;4185;41.506;24.938;2023-04-21T09:39:44;93074.53;;;13.08;74.26
8294;BME280;4185;41.506;24.938;2023-04-21T09:42:11;93067.59;;;13.31;73.07
8294;BME280;4185;41.506;24.938;2023-04-21T09:44:38;93065.50;;;13.42;73.40
8294;BME280;4185;41.506;24.938;2023-04-21T09:47:09;93064.50;;;13.40;71.81
8294;BME280;4185;41.506;24.938;2023-04-21T09:49:38;93057.31;;;13.42;70.24
8294;BME280;4185;41.506;24.938;2023-04-21T09:52:10;93058.41;;;13.34;71.86
8294;BME280;4185;41.506;24.938;2023-04-21T09:54:44;93053.94;;;13.31;70.18
8294;BME280;4185;41.506;24.938;2023-04-21T09:57:20;93055.41;;;13.56;70.61
8294;BME280;4185;41.506;24.938;2023-04-21T09:59:50;93046.03;;;13.89;69.28
8294;BME280;4185;41.506;24.938;2023-04-21T10:02:23;93045.88;;;14.18;66.96
8294;BME280;4185;41.506;24.938;2023-04-21T10:04:51;93033.97;;;14.34;66.42
8294;BME280;4185;41.506;24.938;2023-04-21T10:07:18;93036.69;;;14.34;59.92
8294;BME280;4185;41.506;24.938;2023-04-21T10:09:48;93031.13;;;14.27;61.89
8294;BME280;4185;41.506;24.938;2023-04-21T10:12:16;93031.66;;;14.38;62.47
8294;BME280;4185;41.506;24.938;2023-04-21T10:14:44;93024.34;;;14.59;62.45
8294;BME280;4185;41.506;24.938;2023-04-21T10:17:10;93022.13;;;14.90;62.15
8294;BME280;4185;41.506;24.938;2023-04-21T10:19:49;93029.38;;;15.26;60.57
8294;BME280;4185;41.506;24.938;2023-04-21T10:22:25;93014.75;;;15.24;60.64
8294;BME280;4185;41.506;24.938;2023-04-21T10:24:56;93014.97;;;15.39;58.90
8294;BME280;4185;41.506;24.938;2023-04-21T10:27:34;93017.69;;;15.39;56.21
8294;BME280;4185;41.506;24.938;2023-04-21T10:30:17;93012.31;;;15.59;55.00
8294;BME280;4185;41.506;24.938;2023-04-21T10:32:44;93007.22;;;15.76;54.40
8294;BME280;4185;41.506;24.938;2023-04-21T10:35:12;93003.88;;;16.04;55.54
8294;BME280;4185;41.506;24.938;2023-04-21T10:37:40;93003.63;;;16.15;50.61
8294;BME280;4185;41.506;24.938;2023-04-21T10:40:32;92994.75;;;16.22;52.44
8294;BME280;4185;41.506;24.938;2023-04-21T10:43:01;92995.50;;;16.43;52.50
8294;BME280;4185;41.506;24.938;2023-04-21T10:45:29;92998.09;;;16.69;51.38
8294;BME280;4185;41.506;24.938;2023-04-21T10:47:58;93000.50;;;16.73;48.54
8294;BME280;4185;41.506;24.938;2023-04-21T10:50:28;93009.00;;;16.82;49.36
8294;BME280;4185;41.506;24.938;2023-04-21T10:53:06;93006.28;;;16.82;49.12
8294;BME280;4185;41.506;24.938;2023-04-21T10:55:36;93002.19;;;16.76;48.57
8294;BME280;4185;41.506;24.938;2023-04-21T10:58:06;93007.16;;;16.77;50.29
8294;BME280;4185;41.506;24.938;2023-04-21T11:00:34;93007.69;;;16.76;50.08
8294;BME280;4185;41.506;24.938;2023-04-21T11:03:03;93017.56;;;16.79;50.41
8294;BME280;4185;41.506;24.938;2023-04-21T11:05:33;93007.41;;;16.25;51.50
8294;BME280;4185;41.506;24.938;2023-04-21T11:08:04;93004.59;;;15.84;53.16
8294;BME280;4185;41.506;24.938;2023-04-21T11:10:42;93012.00;;;15.63;54.01
8294;BME280;4185;41.506;24.938;2023-04-21T11:13:10;93001.72;;;15.43;54.20
8294;BME280;4185;41.506;24.938;2023-04-21T11:15:36;93017.28;;;15.35;55.01
8294;BME280;4185;41.506;24.938;2023-04-21T11:18:04;93011.59;;;15.20;55.42
8294;BME280;4185;41.506;24.938;2023-04-21T11:20:33;93020.44;;;15.13;55.66
8294;BME280;4185;41.506;24.938;2023-04-21T11:23:00;93037.69;;;15.08;56.55
8294;BME280;4185;41.506;24.938;2023-04-21T11:25:27;93037.47;;;15.06;57.26
8294;BME280;4185;41.506;24.938;2023-04-21T11:27:57;93030.31;;;14.90;56.80
8294;BME280;4185;41.506;24.938;2023-04-21T11:30:30;93036.56;;;14.72;57.43
8294;BME280;4185;41.506;24.938;2023-04-21T11:32:58;93030.56;;;14.60;57.13
8294;BME280;4185;41.506;24.938;2023-04-21T11:35:25;93030.47;;;14.52;57.68
8294;BME280;4185;41.506;24.938;2023-04-21T11:37:53;93043.06;;;14.55;57.75
8294;BME280;4185;41.506;24.938;2023-04-21T11:40:20;93042.63;;;14.51;57.94
8294;BME280;4185;41.506;24.938;2023-04-21T11:42:47;93048.94;;;14.46;58.25
8294;BME280;4185;41.506;24.938;2023-04-21T11:45:18;93050.19;;;14.45;59.33
8294;BME280;4185;41.506;24.938;2023-04-21T11:47:46;93052.47;;;14.41;59.73
8294;BME280;4185;41.506;24.938;2023-04-21T11:50:29;93057.31;;;14.35;60.29
8294;BME280;4185;41.506;24.938;2023-04-21T11:52:56;93066.75;;;14.34;62.29
8294;BME280;4185;41.506;24.938;2023-04-21T11:55:23;93058.69;;;14.23;63.72
8294;BME280;4185;41.506;24.938;2023-04-21T11:57:51;93065.88;;;14.26;64.20
8294;BME280;4185;41.506;24.938;2023-04-21T12:00:20;93058.50;;;14.53;64.07
8294;BME280;4185;41.506;24.938;2023-04-21T12:02:53;93061.06;;;15.22;62.12
8294;BME280;4185;41.506;24.938;2023-04-21T12:05:21;93065.84;;;15.47;60.46
8294;BME280;4185;41.506;24.938;2023-04-21T12:07:48;93053.06;;;15.50;59.35
8294;BME280;4185;41.506;24.938;2023-04-21T12:10:18;93054.34;;;15.62;59.32
8294;BME280;4185;41.506;24.938;2023-04-21T12:12:45;93058.09;;;15.72;58.42
8294;BME280;4185;41.506;24.938;2023-04-21T12:15:16;93039.75;;;15.80;58.59
8294;BME280;4185;41.506;24.938;2023-04-21T12:17:46;93041.22;;;15.94;58.19
8294;BME280;4185;41.506;24.938;2023-04-21T12:20:15;93039.81;;;16.01;56.06
8294;BME280;4185;41.506;24.938;2023-04-21T12:22:43;93042.59;;;16.21;56.47
8294;BME280;4185;41.506;24.938;2023-04-21T12:25:10;93031.84;;;16.23;55.40
8294;BME280;4185;41.506;24.938;2023-04-21T12:27:36;93049.75;;;16.24;54.52
8294;BME280;4185;41.506;24.938;2023-04-21T12:30:04;93040.88;;;16.31;53.92
8294;BME280;4185;41.506;24.938;2023-04-21T12:32:31;93033.34;;;16.45;53.70
8294;BME280;4185;41.506;24.938;2023-04-21T12:34:59;93036.06;;;16.45;53.52
8294;BME280;4185;41.506;24.938;2023-04-21T12:37:27;93037.81;;;16.01;53.14
8294;BME280;4185;41.506;24.938;2023-04-21T12:39:53;93036.50;;;15.81;52.58
8294;BME280;4185;41.506;24.938;2023-04-21T12:42:20;93047.41;;;15.61;53.29
8294;BME280;4185;41.506;24.938;2023-04-21T12:44:48;93046.47;;;15.45;54.24
8294;BME280;4185;41.506;24.938;2023-04-21T12:47:14;93054.03;;;15.39;53.75
8294;BME280;4185;41.506;24.938;2023-04-21T12:49:41;93052.72;;;15.27;54.88
8294;BME280;4185;41.506;24.938;2023-04-21T12:52:10;93060.84;;;15.20;54.39
8294;BME280;4185;41.506;24.938;2023-04-21T12:54:36;93073.03;;;15.19;55.30
8294;BME280;4185;41.506;24.938;2023-04-21T12:57:04;93064.72;;;15.24;56.41
8294;BME280;4185;41.506;24.938;2023-04-21T12:59:31;93073.06;;;15.32;58.28
8294;BME280;4185;41.506;24.938;2023-04-21T13:01:58;93061.28;;;15.37;59.93
8294;BME280;4185;41.506;24.938;2023-04-21T13:04:25;93068.94;;;15.38;55.89
8294;BME280;4185;41.506;24.938;2023-04-21T13:06:52;93064.84;;;15.32;58.17
8294;BME280;4185;41.506;24.938;2023-04-21T13:09:20;93057.88;;;15.31;59.87
8294;BME280;4185;41.506;24.938;2023-04-21T13:11:47;93054.22;;;15.28;65.17
8294;BME280;4185;41.506;24.938;2023-04-21T13:14:14;93031.59;;;15.28;65.94
8294;BME280;4185;41.506;24.938;2023-04-21T13:16:42;93029.38;;;15.39;65.52